Time;durP1;ratioP1;P1;durP2;ratioP2;P2;SDS_P1;SDS_P2;PMS_P1;PMS_P2;Temp;Humidity;BMP_temperature;BMP_pressure;BME280_temperature;BME280_humidity;BME280_pressure;Samples;Min_cycle;Max_cycle;Signal;HPM_P1;HPM_P2
2021/03/30 00:01:47;;;;;;;8.10;6.03;;;;;;;11.23;62.30;101396.69;4994351;28;20050;-63
2021/03/30 00:04:18;;;;;;;9.45;7.00;;;;;;;11.23;61.99;101394.09;4994432;28;20038;-63
2021/03/30 00:06:43;;;;;;;10.38;7.05;;;;;;;11.23;62.26;101395.81;4993317;28;20626;-63
2021/03/30 00:09:16;;;;;;;10.77;6.10;;;;;;;11.21;62.25;101393.16;4993439;28;20544;-63
2021/03/30 00:11:41;;;;;;;9.45;5.68;;;;;;;11.21;62.18;101397.47;4994329;28;20038;-63
2021/03/30 00:14:07;;;;;;;8.35;6.18;;;;;;;11.21;62.13;101397.47;4994685;28;20046;-62
2021/03/30 00:16:35;;;;;;;10.38;5.80;;;;;;;11.20;62.15;101395.72;4993927;28;20043;-65
2021/03/30 00:19:07;;;;;;;8.15;5.53;;;;;;;11.20;62.38;101396.59;4994499;28;20026;-63
2021/03/30 00:21:35;;;;;;;6.88;5.68;;;;;;;11.20;62.11;101388.81;4993935;28;20490;-62
2021/03/30 00:24:06;;;;;;;9.02;5.63;;;;;;;11.20;62.36;101388.81;4994532;28;20042;-63
2021/03/30 00:26:35;;;;;;;10.88;5.95;;;;;;;11.21;62.41;101393.16;4993234;28;20368;-63
2021/03/30 00:29:04;;;;;;;10.20;6.43;;;;;;;11.20;62.41;101381.00;4994070;28;20046;-62
2021/03/30 00:31:32;;;;;;;7.82;5.40;;;;;;;11.20;62.27;101388.81;4992549;28;20039;-63
2021/03/30 00:34:00;;;;;;;7.20;5.82;;;;;;;11.17;62.23;101388.69;4994378;28;20038;-63
2021/03/30 00:36:29;;;;;;;11.88;6.32;;;;;;;11.19;62.51;101383.56;4993250;28;20042;-62
2021/03/30 00:38:57;;;;;;;9.88;6.03;;;;;;;11.19;62.47;101386.16;4993943;28;20535;-63
2021/03/30 00:41:22;;;;;;;8.30;5.65;;;;;;;11.20;62.11;101386.22;4992555;28;20041;-64
2021/03/30 00:43:51;;;;;;;7.68;5.53;;;;;;;11.19;62.08;101384.44;4994308;28;20038;-63
2021/03/30 00:46:20;;;;;;;7.55;5.47;;;;;;;11.19;62.18;101378.38;4994015;28;20129;-63
2021/03/30 00:48:50;;;;;;;7.78;5.80;;;;;;;11.19;62.34;101389.63;4995978;28;20069;-62
2021/03/30 00:51:19;;;;;;;7.60;5.57;;;;;;;11.18;62.57;101387.84;4996876;28;20046;-63
2021/03/30 00:53:48;;;;;;;8.35;6.05;;;;;;;11.18;62.55;101387.84;4996866;28;20038;-63
2021/03/30 00:56:13;;;;;;;9.52;5.53;;;;;;;11.18;62.23;101376.63;4997549;28;20038;-63
2021/03/30 00:58:39;;;;;;;7.53;5.63;;;;;;;11.17;62.16;101380.91;4996776;28;20041;-63
2021/03/30 01:01:07;;;;;;;9.15;6.05;;;;;;;11.16;62.30;101384.31;4997855;28;20097;-63
2021/03/30 01:03:35;;;;;;;6.85;5.70;;;;;;;11.17;62.32;101387.81;4997699;28;20501;-63
2021/03/30 01:06:01;;;;;;;7.15;5.47;;;;;;;11.16;62.64;101378.25;4998057;28;20126;-63
2021/03/30 01:08:52;;;;;;;9.20;6.05;;;;;;;11.15;62.16;101379.97;4997661;28;20129;-62
2021/03/30 01:11:45;;;;;;;8.88;6.10;;;;;;;11.15;62.18;101379.97;4997987;28;20039;-62
2021/03/30 01:14:41;;;;;;;9.32;6.15;;;;;;;11.15;62.47;101379.09;4996509;28;20081;-62
2021/03/30 01:17:44;;;;;;;7.13;5.72;;;;;;;11.15;62.41;101379.09;4997216;28;20497;-62
2021/03/30 01:20:18;;;;;;;7.28;5.18;;;;;;;11.12;62.37;101372.97;4997514;28;20034;-62
2021/03/30 01:23:02;;;;;;;;;;;;;;;11.09;62.46;101378.03;4997597;28;20061;-62
2021/03/30 01:25:29;;;;;;;9.38;5.20;;;;;;;11.07;62.01;101371.91;4997666;28;19972;-63
2021/03/30 01:28:17;;;;;;;7.78;5.45;;;;;;;11.07;62.09;101371.03;4996877;28;20034;-64
2021/03/30 01:30:51;;;;;;;7.50;5.28;;;;;;;11.07;62.48;101365.84;4997419;28;20061;-63
2021/03/30 01:33:20;;;;;;;;;;;;;;;11.06;62.16;101366.69;4998023;28;20089;-63
2021/03/30 01:35:51;;;;;;;7.78;4.50;;;;;;;11.07;62.29;101363.25;4997663;28;19972;-63
2021/03/30 01:38:17;;;;;;;10.20;5.65;;;;;;;11.06;62.42;101362.34;4997230;28;20038;-63
2021/03/30 01:40:47;;;;;;;6.78;5.10;;;;;;;11.07;62.42;101355.47;4997465;28;20043;-62
2021/03/30 01:43:15;;;;;;;7.28;4.93;;;;;;;11.08;62.49;101359.84;4997068;28;20049;-62
2021/03/30 01:45:43;;;;;;;8.80;5.15;;;;;;;11.08;62.20;101358.09;4996314;28;20045;-62
2021/03/30 01:48:10;;;;;;;7.13;4.55;;;;;;;11.08;62.29;101354.66;4997232;28;20085;-63
2021/03/30 01:50:36;;;;;;;11.00;5.05;;;;;;;11.06;62.23;101362.34;4996850;28;20070;-63
2021/03/30 01:53:03;;;;;;;7.00;5.07;;;;;;;11.05;62.10;101352.84;4995602;28;20066;-64
2021/03/30 01:55:36;;;;;;;6.45;4.45;;;;;;;11.05;61.83;101359.72;4997211;28;20042;-63
2021/03/30 01:58:08;;;;;;;8.13;4.70;;;;;;;11.04;62.28;101356.25;4996818;28;20516;-62
2021/03/30 02:00:36;;;;;;;8.02;5.15;;;;;;;11.05;61.91;101359.72;4996240;28;20118;-64
2021/03/30 02:03:06;;;;;;;7.75;4.70;;;;;;;11.04;61.75;101357.97;4979460;28;20446;-63
2021/03/30 02:05:36;;;;;;;10.00;4.78;;;;;;;11.04;62.04;101358.84;4996532;28;20042;-63
2021/03/30 02:08:04;;;;;;;7.95;4.32;;;;;;;11.02;61.89;101342.34;4995082;28;20482;-63
2021/03/30 02:10:37;;;;;;;8.38;5.05;;;;;;;11.01;61.68;101353.56;4996589;28;20042;-62
2021/03/30 02:13:06;;;;;;;8.63;4.38;;;;;;;10.99;61.40;101350.03;4994733;28;20027;-62
2021/03/30 02:15:32;;;;;;;9.63;5.30;;;;;;;10.96;61.60;101350.81;4995287;28;20045;-63
2021/03/30 02:18:08;;;;;;;8.85;4.57;;;;;;;10.94;61.37;101344.69;4996445;28;20042;-63
2021/03/30 02:20:39;;;;;;;11.00;6.28;;;;;;;10.93;61.69;101345.50;4994863;28;20517;-62
2021/03/30 02:23:10;;;;;;;9.40;5.15;;;;;;;10.92;61.53;101343.72;4996338;28;20501;-63
2021/03/30 02:25:58;;;;;;;7.90;5.63;;;;;;;10.93;61.75;101336.81;4996407;28;20108;-63
2021/03/30 02:28:55;;;;;;;7.85;5.05;;;;;;;10.94;61.90;101339.50;4996439;28;20486;-63
2021/03/30 02:31:27;;;;;;;8.52;5.18;;;;;;;10.95;61.94;101338.66;4995214;28;20038;-63
2021/03/30 02:33:56;;;;;;;9.43;5.40;;;;;;;10.95;61.68;101338.66;4996411;28;20050;-63
2021/03/30 02:36:24;;;;;;;9.15;5.25;;;;;;;10.94;61.81;101334.31;4994919;28;20045;-63
2021/03/30 02:38:52;;;;;;;10.50;5.05;;;;;;;10.95;61.66;101329.97;4995639;28;20409;-63
2021/03/30 02:41:19;;;;;;;9.05;4.85;;;;;;;10.95;61.68;101328.28;4995878;28;20497;-63
2021/03/30 02:43:49;;;;;;;7.80;4.82;;;;;;;10.95;61.37;101338.66;4995697;28;20481;-62
2021/03/30 02:46:16;;;;;;;7.68;5.20;;;;;;;10.94;61.86;101330.81;4994843;28;20038;-63
2021/03/30 02:48:46;;;;;;;6.90;4.78;;;;;;;10.96;61.68;101331.75;4995965;28;20494;-63
2021/03/30 02:51:14;;;;;;;7.00;4.55;;;;;;;10.96;61.44;101330.06;4994497;28;20034;-63
2021/03/30 02:53:41;;;;;;;9.30;5.57;;;;;;;10.98;61.65;101327.50;4995787;28;20556;-62
2021/03/30 02:56:08;;;;;;;7.10;4.93;;;;;;;10.98;61.86;101327.50;4994284;28;20030;-63
2021/03/30 02:58:34;;;;;;;9.18;4.82;;;;;;;10.99;61.91;101318.88;4994386;28;20058;-62
2021/03/30 03:01:04;;;;;;;7.55;4.90;;;;;;;11.00;61.60;101322.34;4995710;28;20489;-63
2021/03/30 03:03:34;;;;;;;5.93;4.38;;;;;;;11.00;61.60;101320.66;4996064;28;20058;-62
2021/03/30 03:06:01;;;;;;;7.75;4.97;;;;;;;11.01;61.56;101324.13;4994694;28;20038;-63
2021/03/30 03:08:28;;;;;;;7.05;4.78;;;;;;;10.98;61.65;101324.03;4995350;28;20065;-63
2021/03/30 03:10:57;;;;;;;13.52;5.65;;;;;;;10.97;61.79;101325.72;4995029;28;20125;-62
2021/03/30 03:13:27;;;;;;;8.57;4.75;;;;;;;10.95;61.03;101317.00;4995252;28;20104;-63
2021/03/30 03:15:53;;;;;;;7.95;4.75;;;;;;;10.96;61.94;101319.69;4995129;28;20062;-63
2021/03/30 03:18:19;;;;;;;6.68;4.85;;;;;;;10.96;61.63;101323.97;4994344;28;20093;-63
2021/03/30 03:20:50;;;;;;;8.23;5.72;;;;;;;10.95;61.76;101323.09;4995172;28;20039;-62
2021/03/30 03:23:16;;;;;;;12.10;5.35;;;;;;;10.96;61.48;101327.47;4995330;28;20041;-63
2021/03/30 03:25:45;;;;;;;7.60;5.05;;;;;;;10.95;61.79;101323.09;4995080;28;20044;-63
2021/03/30 03:28:14;;;;;;;9.32;5.20;;;;;;;10.95;61.60;101325.69;4978315;28;20046;-63
2021/03/30 03:30:40;;;;;;;7.03;4.68;;;;;;;10.96;61.63;101330.06;4995310;28;20077;-62
2021/03/30 03:33:08;;;;;;;6.47;4.82;;;;;;;10.95;61.58;101332.56;4994579;28;20042;-63
2021/03/30 03:35:35;;;;;;;8.07;5.35;;;;;;;10.95;61.37;101322.19;4977546;28;20121;-62
2021/03/30 03:38:04;;;;;;;8.32;4.90;;;;;;;10.94;61.68;101330.81;4994927;28;20093;-62
2021/03/30 03:40:33;;;;;;;6.22;4.45;;;;;;;10.92;61.39;101325.56;4993676;28;20038;-63
2021/03/30 03:43:03;;;;;;;7.63;4.40;;;;;;;10.94;61.82;101333.41;4993646;28;20034;-63
2021/03/30 03:45:28;;;;;;;7.50;5.40;;;;;;;10.92;61.37;101332.47;4993551;28;20379;-63
2021/03/30 03:47:55;;;;;;;6.78;4.35;;;;;;;10.91;61.83;101333.28;4994768;28;20077;-62
2021/03/30 03:50:23;;;;;;;6.65;5.00;;;;;;;10.91;61.48;101331.59;4994783;28;20045;-62
2021/03/30 03:52:53;;;;;;;7.85;5.15;;;;;;;10.90;61.46;101332.41;4993082;28;20030;-61
2021/03/30 03:55:23;;;;;;;9.07;5.32;;;;;;;10.89;61.43;101330.66;4993025;28;20038;-62
2021/03/30 03:57:51;;;;;;;10.02;5.22;;;;;;;10.89;61.57;101335.84;4993656;28;20034;-62
2021/03/30 04:00:20;;;;;;;9.13;5.07;;;;;;;10.89;61.49;101329.78;4993395;28;20042;-63
2021/03/30 04:03:05;;;;;;;8.18;4.97;;;;;;;10.87;61.72;101329.72;4992959;28;20050;-63
2021/03/30 04:06:09;;;;;;;8.02;4.88;;;;;;;10.88;61.42;101328.00;4993530;28;20086;-62
2021/03/30 04:08:42;;;;;;;7.97;5.00;;;;;;;10.87;61.42;101328.84;4956533;28;20050;-63
2021/03/30 04:11:13;;;;;;;8.85;5.10;;;;;;;10.86;61.71;101327.06;4993364;28;20072;-63
2021/03/30 04:13:40;;;;;;;5.85;4.55;;;;;;;10.86;61.68;101327.06;4994329;28;20038;-63
2021/03/30 04:16:06;;;;;;;6.28;4.97;;;;;;;10.86;61.92;101332.25;4993040;28;20391;-62
2021/03/30 04:18:39;;;;;;;5.85;4.93;;;;;;;10.84;61.63;101332.19;4994378;28;20494;-63
2021/03/30 04:21:08;;;;;;;5.90;5.00;;;;;;;10.85;61.78;101335.69;4994261;28;20405;-63
2021/03/30 04:23:41;;;;;;;7.38;5.13;;;;;;;10.84;61.86;101332.19;4993509;28;20505;-63
2021/03/30 04:26:09;;;;;;;8.80;4.53;;;;;;;10.84;61.53;101334.78;4994029;28;20042;-62
2021/03/30 04:28:38;;;;;;;7.78;4.78;;;;;;;10.85;61.53;101327.91;4994211;28;20038;-63
2021/03/30 04:31:06;;;;;;;7.50;4.60;;;;;;;10.84;61.59;101328.72;4994584;28;20489;-62
2021/03/30 04:33:33;;;;;;;6.00;4.40;;;;;;;10.85;61.53;101335.69;4993146;28;20054;-63
2021/03/30 04:35:58;;;;;;;8.57;5.13;;;;;;;10.83;61.76;101330.41;4994162;28;20493;-63
2021/03/30 04:38:29;;;;;;;7.93;5.03;;;;;;;10.84;61.77;101333.91;4976998;28;20124;-63
2021/03/30 04:40:55;;;;;;;6.40;4.38;;;;;;;10.81;61.49;101334.69;4994032;28;20073;-63
2021/03/30 04:43:23;;;;;;;7.07;4.85;;;;;;;10.82;62.10;101333.88;4994065;28;20046;-63
2021/03/30 04:45:50;;;;;;;7.30;5.00;;;;;;;10.82;61.72;101336.47;4993983;28;20097;-63
2021/03/30 04:48:16;;;;;;;8.10;5.38;;;;;;;10.81;61.65;101334.69;4992871;28;20034;-63
2021/03/30 04:50:45;;;;;;;7.88;4.97;;;;;;;10.81;61.62;101334.69;4993560;28;20034;-62
2021/03/30 04:53:11;;;;;;;7.65;5.10;;;;;;;10.80;62.02;101338.97;4993935;28;20120;-63
2021/03/30 04:55:39;;;;;;;7.18;4.50;;;;;;;10.79;61.51;101336.34;4993941;28;20061;-63
2021/03/30 04:58:05;;;;;;;6.50;4.72;;;;;;;10.78;61.49;101335.44;4992886;28;20117;-62
2021/03/30 05:00:33;;;;;;;7.50;4.88;;;;;;;10.78;61.76;101335.44;4994126;28;20174;-63
2021/03/30 05:02:59;;;;;;;6.57;5.05;;;;;;;10.78;61.68;101338.03;4992347;28;20046;-62
2021/03/30 05:05:27;;;;;;;5.78;4.35;;;;;;;10.77;61.70;101345.78;4993854;28;20041;-63
2021/03/30 05:07:52;;;;;;;7.10;4.63;;;;;;;10.77;61.85;101338.00;4992574;28;20046;-62
2021/03/30 05:10:18;;;;;;;6.50;4.07;;;;;;;10.76;61.77;101342.28;4992610;28;20486;-62
2021/03/30 05:12:46;;;;;;;7.53;4.90;;;;;;;10.75;61.56;101343.13;4993864;28;20115;-62
2021/03/30 05:15:12;;;;;;;5.40;3.85;;;;;;;10.76;61.85;101349.19;4993407;28;20038;-63
2021/03/30 05:17:41;;;;;;;8.20;4.88;;;;;;;10.73;61.67;101355.16;4993838;28;20048;-63
2021/03/30 05:20:09;;;;;;;6.30;4.35;;;;;;;10.74;61.94;101356.03;4993586;28;20070;-63
2021/03/30 05:22:35;;;;;;;8.15;4.50;;;;;;;10.73;61.95;101349.97;4992232;28;20469;-62
2021/03/30 05:25:02;;;;;;;7.80;4.90;;;;;;;10.74;61.72;101358.63;4993054;28;20034;-63
2021/03/30 05:27:33;;;;;;;5.50;4.03;;;;;;;10.73;61.85;101359.47;4977053;28;20042;-62
2021/03/30 05:30:02;;;;;;;6.28;4.97;;;;;;;10.73;62.10;101359.47;4992488;28;20038;-62
2021/03/30 05:32:28;;;;;;;5.85;4.65;;;;;;;10.73;61.56;101369.81;4992244;28;20116;-63
2021/03/30 05:34:53;;;;;;;5.70;4.35;;;;;;;10.73;61.67;101365.53;4994661;28;20487;-63
2021/03/30 05:37:19;;;;;;;6.28;4.45;;;;;;;10.72;61.81;101357.69;4995562;28;20042;-64
2021/03/30 05:39:44;;;;;;;8.45;5.03;;;;;;;10.72;61.86;101361.19;4997175;28;20089;-63
2021/03/30 05:42:15;;;;;;;5.68;4.28;;;;;;;10.70;61.74;101359.34;4995769;28;20099;-63
2021/03/30 05:44:42;;;;;;;8.02;5.22;;;;;;;10.71;61.75;101368.88;4997434;28;20089;-63
2021/03/30 05:49:40;;;;;;;6.82;4.28;;;;;;;10.70;61.58;101369.72;4996540;28;20042;-62
2021/03/30 05:52:20;;;;;;;7.78;4.75;;;;;;;10.69;61.92;101367.94;4995275;28;20042;-63
2021/03/30 05:54:47;;;;;;;6.63;4.50;;;;;;;10.69;61.72;101373.13;4996192;28;20061;-61
2021/03/30 05:57:17;;;;;;;7.80;4.93;;;;;;;10.70;61.88;101377.47;4996887;28;20502;-63
2021/03/30 05:59:45;;;;;;;8.07;5.20;;;;;;;10.69;61.61;101380.91;4995811;28;20525;-62
2021/03/30 06:02:22;;;;;;;6.50;5.10;;;;;;;10.68;61.62;101379.13;4995170;28;20057;-63
2021/03/30 06:04:54;;;;;;;7.28;4.53;;;;;;;10.68;61.55;101387.81;4994979;28;20034;-63
2021/03/30 06:07:23;;;;;;;6.38;4.53;;;;;;;10.68;61.90;101389.50;4996935;28;20101;-62
2021/03/30 06:09:52;;;;;;;7.57;4.20;;;;;;;10.68;61.67;101390.41;4995478;28;20129;-62
2021/03/30 06:12:20;;;;;;;6.65;4.35;;;;;;;10.67;61.99;101386.03;4996232;28;20045;-63
2021/03/30 06:14:47;;;;;;;7.18;4.65;;;;;;;10.67;61.91;101383.44;4996588;28;20046;-62
2021/03/30 06:17:19;;;;;;;7.50;5.47;;;;;;;10.68;61.85;101390.41;4995344;28;20038;-63
2021/03/30 06:19:55;;;;;;;7.30;5.13;;;;;;;10.67;62.01;101393.81;4995841;28;20089;-63
2021/03/30 06:22:23;;;;;;;6.82;4.40;;;;;;;10.66;61.91;101390.38;4996616;28;20125;-63
2021/03/30 06:24:54;;;;;;;6.93;4.18;;;;;;;10.66;61.57;101395.56;4996381;28;20045;-63
2021/03/30 06:27:27;;;;;;;5.60;4.22;;;;;;;10.65;61.97;101396.38;4978546;28;20045;-64
2021/03/30 06:29:59;;;;;;;5.60;4.25;;;;;;;10.63;61.65;101398.03;4995151;28;20034;-62
2021/03/30 06:32:28;;;;;;;7.40;4.68;;;;;;;10.63;61.77;101391.94;4996256;28;20043;-62
2021/03/30 06:35:08;;;;;;;7.75;5.22;;;;;;;10.63;61.73;101402.31;4996190;28;20088;-62
2021/03/30 06:37:35;;;;;;;9.05;5.13;;;;;;;10.62;61.52;101398.84;4996284;28;20045;-63
2021/03/30 06:40:11;;;;;;;5.38;3.80;;;;;;;10.64;61.74;101404.06;4995813;28;20485;-62
2021/03/30 06:42:53;;;;;;;7.55;5.00;;;;;;;10.63;61.74;101405.78;4996124;28;20084;-63
2021/03/30 06:45:24;;;;;;;6.13;4.07;;;;;;;10.63;61.71;101410.09;4994805;28;20494;-64
2021/03/30 06:47:54;;;;;;;5.95;4.50;;;;;;;10.63;61.70;101403.22;4994500;28;20120;-64
2021/03/30 06:50:31;;;;;;;7.03;4.80;;;;;;;10.64;62.08;101410.16;4994644;28;20034;-64
2021/03/30 06:53:13;;;;;;;6.88;4.38;;;;;;;10.63;62.02;101412.69;4996051;28;20121;-62
2021/03/30 06:55:49;;;;;;;6.63;4.93;;;;;;;10.61;61.69;101417.81;4995994;28;20065;-63
2021/03/30 06:58:23;;;;;;;4.97;3.67;;;;;;;10.62;61.83;101414.41;4994598;28;20046;-63
2021/03/30 07:00:50;;;;;;;8.63;5.15;;;;;;;10.62;61.93;101417.00;4995699;28;20038;-63
2021/03/30 07:03:24;;;;;;;5.60;3.72;;;;;;;10.62;62.04;101414.41;4995503;28;20050;-62
2021/03/30 07:05:53;;;;;;;6.82;4.78;;;;;;;10.62;61.74;101418.69;4995808;28;20038;-63
2021/03/30 07:08:21;;;;;;;7.55;4.70;;;;;;;10.62;61.78;101417.00;4994512;28;20034;-63
2021/03/30 07:10:52;;;;;;;6.85;4.15;;;;;;;10.62;62.06;101416.09;4978189;28;20048;-63
2021/03/30 07:13:19;;;;;;;5.68;4.57;;;;;;;10.62;61.70;101417.00;4995185;28;20077;-63
2021/03/30 07:15:45;;;;;;;6.03;4.43;;;;;;;10.63;61.80;101415.28;4994928;28;20038;-63
2021/03/30 07:18:27;;;;;;;6.82;4.70;;;;;;;10.62;61.81;101417.00;4995358;28;20088;-63
2021/03/30 07:21:04;;;;;;;6.78;4.47;;;;;;;10.62;62.04;101413.50;4994370;28;20501;-63
2021/03/30 07:23:32;;;;;;;6.95;4.32;;;;;;;10.63;61.77;101420.44;4977976;28;20038;-63
2021/03/30 07:26:24;;;;;;;7.63;5.28;;;;;;;10.62;61.83;101429.97;4995121;28;20482;-63
2021/03/30 07:29:04;;;;;;;6.07;4.57;;;;;;;10.62;61.58;101426.47;4994418;28;20042;-63
2021/03/30 07:31:33;;;;;;;6.10;4.80;;;;;;;10.60;61.54;101433.28;4994050;28;20047;-62
2021/03/30 07:34:11;;;;;;;7.38;5.10;;;;;;;10.58;62.11;101433.25;4993886;28;20031;-62
2021/03/30 07:37:08;;;;;;;6.03;4.78;;;;;;;10.57;61.98;101441.84;4994534;28;20038;-63
2021/03/30 07:39:50;;;;;;;6.88;4.50;;;;;;;10.60;61.78;101441.06;4993945;28;20041;-63
2021/03/30 07:42:19;;;;;;;5.95;3.80;;;;;;;10.61;61.73;101427.28;4995139;28;20072;-64
2021/03/30 07:44:48;;;;;;;6.25;4.60;;;;;;;10.61;61.89;101435.06;4993379;28;20033;-62
2021/03/30 07:47:17;;;;;;;6.63;4.78;;;;;;;10.62;61.96;101440.31;4994218;28;20030;-63
2021/03/30 07:49:48;;;;;;;8.65;5.40;;;;;;;10.62;62.23;101436.84;4993357;28;20121;-62
2021/03/30 07:52:21;;;;;;;6.75;4.70;;;;;;;10.62;61.82;101440.31;4994893;28;20092;-61
2021/03/30 07:55:29;;;;;;;9.13;4.93;;;;;;;10.62;62.11;101437.72;4994810;28;20030;-63
2021/03/30 07:57:59;;;;;;;7.38;5.53;;;;;;;10.62;61.89;101434.25;4992859;28;20039;-63
2021/03/30 08:00:52;;;;;;;7.90;4.80;;;;;;;10.61;62.07;101438.56;4992957;28;20406;-62
2021/03/30 08:03:33;;;;;;;6.63;5.13;;;;;;;10.62;61.67;101440.31;4985751;28;20054;-63
2021/03/30 08:06:16;;;;;;;9.05;4.90;;;;;;;10.62;61.63;101437.72;4994011;28;20038;-63
2021/03/30 08:08:53;;;;;;;8.93;4.60;;;;;;;10.61;61.96;101441.16;4994768;28;20048;-62
2021/03/30 08:11:43;;;;;;;7.82;5.70;;;;;;;10.61;62.01;101433.38;4994544;28;20089;-63
2021/03/30 08:14:12;;;;;;;6.63;4.68;;;;;;;10.61;61.92;101435.06;4982454;28;20050;-62
2021/03/30 08:16:43;;;;;;;10.00;5.25;;;;;;;10.60;61.63;101426.41;4994206;28;20564;-62
2021/03/30 08:19:17;;;;;;;6.47;5.18;;;;;;;10.61;61.60;101424.69;4994439;28;20046;-62
2021/03/30 08:22:06;;;;;;;5.85;4.78;;;;;;;10.60;61.93;101426.41;4993473;28;20038;-62
2021/03/30 08:24:44;;;;;;;14.02;5.55;;;;;;;10.62;61.65;101426.47;4977161;28;20046;-64
2021/03/30 08:27:31;;;;;;;6.10;4.97;;;;;;;10.62;61.51;101427.38;4993304;28;20068;-63
2021/03/30 08:30:01;;;;;;;7.55;5.57;;;;;;;10.64;61.67;101430.00;4993598;28;20096;-62
2021/03/30 08:32:32;;;;;;;8.93;4.95;;;;;;;10.65;61.73;101431.78;4994065;28;20589;-63
2021/03/30 08:35:35;;;;;;;7.43;5.07;;;;;;;10.65;61.73;101424.91;4993980;28;20045;-63
2021/03/30 08:38:04;;;;;;;7.60;5.18;;;;;;;10.68;62.09;101426.72;4964550;28;20137;-62
2021/03/30 08:40:34;;;;;;;9.52;5.50;;;;;;;10.69;61.72;101422.38;4992905;28;20048;-63
2021/03/30 08:43:12;;;;;;;11.85;5.95;;;;;;;10.70;61.78;101416.38;4993654;28;20125;-63
2021/03/30 08:46:07;;;;;;;7.50;4.47;;;;;;;10.71;61.93;101420.75;4976533;28;20070;-63
2021/03/30 08:48:42;;;;;;;;;;;;;;;10.72;61.54;101422.50;4993148;28;20496;-64
2021/03/30 08:51:14;;;;;;;6.85;4.78;;;;;;;10.73;61.70;101426.88;4992848;28;19927;-63
2021/03/30 08:53:46;;;;;;;9.43;5.10;;;;;;;10.75;61.62;101425.22;4993922;28;20037;-63
2021/03/30 08:56:16;;;;;;;7.85;5.38;;;;;;;10.76;61.55;101425.28;4993727;28;20066;-63
2021/03/30 08:58:52;;;;;;;9.02;5.00;;;;;;;10.78;61.72;101434.00;4976764;28;20503;-63
2021/03/30 09:01:21;;;;;;;10.57;5.25;;;;;;;10.80;61.89;101436.66;4993564;28;20033;-62
2021/03/30 09:03:55;;;;;;;9.40;5.40;;;;;;;10.82;61.99;101435.88;4993495;28;20402;-62
2021/03/30 09:06:35;;;;;;;8.88;5.30;;;;;;;10.85;61.72;101431.63;4992677;28;20034;-63
2021/03/30 09:09:00;;;;;;;9.00;6.13;;;;;;;10.87;61.93;101430.00;4995013;28;20061;-64
2021/03/30 09:11:36;;;;;;;10.57;5.50;;;;;;;10.89;61.87;101426.63;4997537;28;20501;-63
2021/03/30 09:14:08;;;;;;;7.18;4.90;;;;;;;10.92;61.86;101436.22;4996281;28;20105;-63
2021/03/30 09:16:35;;;;;;;8.45;4.93;;;;;;;10.92;61.78;101434.53;4996485;28;20125;-63
2021/03/30 09:19:24;;;;;;;7.88;5.35;;;;;;;10.96;61.90;101435.50;4997459;28;20491;-64
2021/03/30 09:21:57;;;;;;;8.77;4.53;;;;;;;10.99;61.48;101432.13;4997434;28;20097;-63
2021/03/30 09:24:49;;;;;;;7.03;4.50;;;;;;;11.01;61.61;101435.66;4996250;28;20038;-63
2021/03/30 09:27:27;;;;;;;5.65;4.43;;;;;;;11.03;61.64;101432.31;4997445;28;20038;-63
2021/03/30 09:29:55;;;;;;;7.70;4.88;;;;;;;11.04;61.34;101425.41;4997461;28;20042;-63
2021/03/30 09:32:22;;;;;;;7.97;4.55;;;;;;;11.09;61.74;101429.06;4997448;28;20038;-63
2021/03/30 09:34:47;;;;;;;6.43;4.35;;;;;;;11.10;61.52;101420.44;4997393;28;20030;-63
2021/03/30 09:37:15;;;;;;;7.85;4.65;;;;;;;11.12;61.64;101426.59;4997216;28;20041;-63
2021/03/30 09:39:48;;;;;;;8.30;4.22;;;;;;;11.15;61.50;101429.25;4996875;28;20133;-62
2021/03/30 09:42:13;;;;;;;6.70;4.85;;;;;;;11.17;61.42;101424.16;4997048;28;20039;-63
2021/03/30 09:44:44;;;;;;;6.53;4.43;;;;;;;11.19;61.26;101422.50;4996763;28;20125;-63
2021/03/30 09:47:14;;;;;;;6.88;4.38;;;;;;;11.22;61.54;101425.16;4996110;28;20088;-63
2021/03/30 09:49:43;;;;;;;7.53;4.43;;;;;;;11.23;61.48;101422.66;4995737;28;20030;-63
2021/03/30 09:52:13;;;;;;;6.43;4.60;;;;;;;11.25;61.66;101418.41;4995569;28;20041;-62
2021/03/30 09:54:41;;;;;;;6.90;4.47;;;;;;;11.27;61.31;101413.25;4996825;28;20049;-63
2021/03/30 09:57:22;;;;;;;5.57;4.30;;;;;;;11.29;61.59;101418.50;4997009;28;20523;-63
2021/03/30 09:59:49;;;;;;;5.75;3.85;;;;;;;11.32;61.37;101423.78;4996044;28;20042;-63
2021/03/30 10:02:20;;;;;;;5.78;3.97;;;;;;;11.32;61.69;101413.41;4995229;28;20054;-63
2021/03/30 10:04:51;;;;;;;8.95;4.43;;;;;;;11.33;61.18;101412.56;4979541;28;20070;-63
2021/03/30 10:07:21;;;;;;;7.07;4.70;;;;;;;11.34;61.43;101412.66;4997049;28;20038;-63
2021/03/30 10:09:58;;;;;;;5.90;4.53;;;;;;;11.37;61.50;101414.47;4996859;28;20038;-63
2021/03/30 10:12:35;;;;;;;7.47;4.00;;;;;;;11.38;61.14;101411.03;4995373;28;20375;-62
2021/03/30 10:15:02;;;;;;;5.90;4.22;;;;;;;11.39;61.43;101397.22;4995617;28;20441;-63
2021/03/30 10:17:31;;;;;;;7.20;4.25;;;;;;;11.40;61.88;101401.59;4996504;28;20038;-63
2021/03/30 10:20:00;;;;;;;8.57;4.38;;;;;;;11.41;61.40;101401.63;4995414;28;20046;-63
2021/03/30 10:22:34;;;;;;;8.48;4.22;;;;;;;11.42;61.06;101400.81;4995751;28;20039;-62
2021/03/30 10:25:06;;;;;;;;;;;;;;;11.43;61.28;101397.38;4995858;28;20030;-63
2021/03/30 10:27:48;;;;;;;6.82;4.32;;;;;;;11.44;61.58;101398.28;4979648;28;19967;-64
2021/03/30 10:30:14;;;;;;;7.13;4.30;;;;;;;11.47;61.41;101395.75;4996579;28;20069;-62
2021/03/30 10:32:48;;;;;;;5.30;4.18;;;;;;;11.47;61.29;101387.97;4996053;28;20034;-63
2021/03/30 10:35:16;;;;;;;;;;;;;;;11.48;61.11;101396.66;4979503;28;20133;-62
2021/03/30 10:37:44;;;;;;;8.60;4.30;;;;;;;11.49;61.57;101393.22;4995886;28;20304;-63
2021/03/30 10:40:15;;;;;;;8.82;4.55;;;;;;;11.50;61.51;101398.47;4995660;28;20557;-63
2021/03/30 10:42:43;;;;;;;9.63;4.65;;;;;;;11.52;61.27;101388.16;4996117;28;20046;-63
2021/03/30 10:45:13;;;;;;;11.15;5.05;;;;;;;11.52;61.60;101383.84;4994889;28;20031;-62
2021/03/30 10:47:44;;;;;;;7.63;3.83;;;;;;;11.53;61.60;101384.69;4994715;28;20038;-62
2021/03/30 10:50:16;;;;;;;5.25;3.55;;;;;;;11.56;61.41;101382.22;4996141;28;20031;-62
2021/03/30 10:52:45;;;;;;;7.32;3.55;;;;;;;11.58;61.31;101383.16;4978291;28;20112;-63
2021/03/30 10:55:19;;;;;;;5.43;4.32;;;;;;;11.57;61.49;101379.69;4995571;28;20109;-62
2021/03/30 10:57:51;;;;;;;7.15;3.80;;;;;;;11.58;60.99;101377.94;4996366;28;20042;-62
2021/03/30 11:00:19;;;;;;;5.80;4.25;;;;;;;11.59;61.40;101374.53;4995955;28;20057;-62
2021/03/30 11:02:45;;;;;;;8.65;4.43;;;;;;;11.62;61.45;101381.53;4995294;28;20080;-62
2021/03/30 11:05:15;;;;;;;7.43;3.78;;;;;;;11.64;61.21;101377.28;4995228;28;20034;-62
2021/03/30 11:07:41;;;;;;;4.80;3.78;;;;;;;11.62;61.10;101364.25;4995377;28;20049;-63
2021/03/30 11:10:11;;;;;;;6.45;3.45;;;;;;;11.65;61.27;101368.66;4995520;28;20034;-63
2021/03/30 11:12:39;;;;;;;4.78;3.47;;;;;;;11.65;61.15;101363.47;4994295;28;20062;-64
2021/03/30 11:15:09;;;;;;;6.03;4.03;;;;;;;11.66;61.06;101360.94;4995437;28;20057;-63
2021/03/30 11:17:37;;;;;;;5.97;3.80;;;;;;;11.67;61.13;101357.50;4994259;28;20070;-63
2021/03/30 11:20:05;;;;;;;8.30;3.75;;;;;;;11.68;61.47;101355.78;4995315;28;20089;-63
2021/03/30 11:22:41;;;;;;;4.50;3.42;;;;;;;11.69;61.28;101349.75;4995408;28;20089;-62
2021/03/30 11:25:07;;;;;;;5.57;4.07;;;;;;;11.70;61.17;101343.72;4995362;28;20407;-63
2021/03/30 11:27:36;;;;;;;5.45;3.63;;;;;;;11.70;61.29;101338.53;4995382;28;20100;-63
2021/03/30 11:30:15;;;;;;;4.70;3.92;;;;;;;11.72;61.33;101344.66;4993877;28;20041;-63
2021/03/30 11:32:53;;;;;;;5.53;3.63;;;;;;;11.71;61.10;101335.09;4993012;28;20035;-62
2021/03/30 11:35:22;;;;;;;4.65;3.28;;;;;;;11.72;61.19;101329.94;4994937;28;20046;-63
2021/03/30 11:37:55;;;;;;;5.65;4.13;;;;;;;11.74;61.30;101332.59;4993686;28;20042;-63
2021/03/30 11:40:20;;;;;;;6.82;3.78;;;;;;;11.75;61.23;101330.88;4993865;28;20030;-63
2021/03/30 11:42:47;;;;;;;4.63;3.10;;;;;;;11.75;61.26;101326.59;4995240;28;20053;-63
2021/03/30 11:45:16;;;;;;;7.68;4.30;;;;;;;11.77;60.85;101324.88;4994905;28;20225;-63
2021/03/30 11:47:41;;;;;;;5.40;3.50;;;;;;;11.77;61.31;101318.81;4977423;28;20042;-62
2021/03/30 11:50:13;;;;;;;6.15;3.58;;;;;;;11.78;61.07;101316.25;4994329;28;20118;-62